National Weather Service United States Department of Commerce
Click Here for Latest Airport Weather Warnings
 
Latest Huntsville TAF


000
FTUS44 KHUN 201120
TAFHSV
TAF
KHSV 201120Z 2012/2112 12004KT P6SM FEW050
FM201600 VRB04KT P6SM SCT050
FM210000 VRB03KT P6SM SKC=

Latest Muscle Shoals TAF


000
FTUS44 KHUN 201120
TAFMSL
TAF
KMSL 201120Z 2012/2112 VRB03KT P6SM FEW050
FM201400 VRB04KT P6SM SCT050
FM210000 VRB03KT P6SM SKC=

 

Back to Main Huntsville Weather Forecast Office Page